ADDS METAR Data INFO
IDs: Format: Raw Decoded Include TAF

Data at: 1153 UTC 21 Jun 2018

KCEW 211053Z AUTO 00000KT 7SM CLR 22/21 A2994 RMK AO2 SLP136 T02220211
KCEW 210953Z AUTO 00000KT 10SM CLR 23/21 A2993 RMK AO2 SLP130 T02280211
KCEW 210853Z AUTO 28003KT 10SM CLR 24/22 A2993 RMK AO2 SLP130 T02390222 55004
KCEW 210753Z AUTO 00000KT 10SM CLR 24/22 A2992 RMK AO2 SLP129 T02440222
KCEW 210653Z AUTO 28004KT 10SM CLR 25/23 A2993 RMK AO2 SLP130 T02500228
KCEW 210553Z AUTO 27004KT 10SM CLR 26/23 A2994 RMK AO2 SLP134 T02560228 10311 20256 403610228 58004
KCEW 210453Z AUTO 26004KT 10SM CLR 26/23 A2995 RMK AO2 SLP138 T02610228
KCEW 210353Z AUTO 23004KT 10SM CLR 27/23 A2996 RMK AO2 SLP141 T02670233
KCEW 210253Z AUTO 24003KT 10SM CLR 28/23 A2995 RMK AO2 SLP138 T02780233 53017
KCEW 210153Z AUTO 25005KT 10SM CLR 28/24 A2993 RMK AO2 SLP132 T02830239
KCEW 210053Z AUTO 00000KT 10SM CLR 29/24 A2992 RMK AO2 SLP126 T02890239
KCEW 202353Z AUTO VRB03KT 10SM CLR 31/23 A2990 RMK AO2 SLP121 T03110228 10361 20278 58003
KCEW 202253Z AUTO 29003KT 10SM CLR 29/22 A2990 RMK AO2 TSE13 SLP122 T02890217
KCEW 202219Z AUTO 18004KT 10SM FEW110 28/21 A2991 RMK AO2 TSE13 T02830206
KCEW 202153Z AUTO VRB06KT 10SM TS FEW060 29/21 A2992 RMK AO2 TSB19 SLP127 T02890211
KCEW 202125Z AUTO 34009KT 10SM TS CLR 31/20 A2992 RMK AO2 LTG DSNT W AND NW TSB19 T03110200
KCEW 202107Z AUTO 34007KT 10SM VCTS SCT060 32/22 A2991 RMK AO2 LTG DSNT W T03220222
KCEW 202053Z AUTO 30005KT 10SM SCT060 33/22 A2991 RMK AO2 SLP125 T03330222 58018
KCEW 201953Z AUTO 00000KT 10SM CLR 35/19 A2993 RMK AO2 SLP130 T03500189
KCEW 201853Z AUTO VRB03KT 10SM CLR 34/20 A2995 RMK AO2 SLP138 T03440200
KCEW 201753Z AUTO 29007KT 10SM CLR 34/20 A2997 RMK AO2 SLP143 T03440200 10350 20261 58009
KCEW 201653Z AUTO 21005KT 10SM FEW060 33/19 A2998 RMK AO2 SLP148 T03330194 PWINO $
KCEW 201553Z AUTO 00000KT 10SM CLR 33/21 A2999 RMK AO2 SLP153 T03330211 $
KCEW 201453Z AUTO 00000KT 10SM CLR 32/22 A2999 RMK AO2 SLP152 T03220217 51005
KCEW 201353Z AUTO 00000KT 10SM CLR 30/22 A2999 RMK AO2 SLP150 T03000222
KCEW 201253Z AUTO 35004KT 10SM CLR 28/22 A2999 RMK AO2 SLP151 T02830222
KCEW 201153Z AUTO 00000KT 10SM CLR 26/22 A2998 RMK AO2 SLP147 T02560222 10261 20228 51005
KCEW 201053Z AUTO 00000KT 9SM CLR 23/22 A2998 RMK AO2 SLP147 T02330217
KCEW 200953Z AUTO 00000KT 9SM CLR 23/22 A2997 RMK AO2 SLP144 T02330217
KCEW 200853Z AUTO 00000KT 9SM CLR 23/22 A2996 RMK AO2 SLP142 T02330217 56007
KCEW 200753Z AUTO 00000KT 10SM CLR 23/22 A2997 RMK AO2 SLP143 T02330217
KCEW 200653Z AUTO 00000KT 10SM CLR 25/22 A2998 RMK AO2 SLP148 T02500222
KCEW 200553Z AUTO 00000KT 10SM CLR 26/22 A2998 RMK AO2 SLP150 T02610222 10333 20261 403610217 58001
KCEW 200453Z AUTO 29004KT 10SM CLR 27/22 A2999 RMK AO2 SLP151 T02670222
KCEW 200353Z AUTO 25003KT 10SM CLR 27/22 A2999 RMK AO2 SLP151 T02720222
KCEW 200253Z AUTO 24003KT 10SM CLR 28/22 A2999 RMK AO2 SLP150 T02780222 53008
KCEW 200153Z AUTO 26005KT 10SM CLR 29/22 A2997 RMK AO2 SLP145 T02890217
KCEW 200053Z AUTO 00000KT 10SM CLR 29/23 A2996 RMK AO2 SLP141 T02890233